Vitebsk, Belarus
Current Conditions -  °F | °C
As of 2:00 PM on Friday 24 Oct 2014 (Local Time) from UMII Reporting Station
Scattered Clouds Scattered Clouds  
Wind Chill: 26°   Ceiling: Unl
Heat Index: 32°   Visibility: 4mi
Dew Point: 18°   Wind: 7mph
Humidity: 55%   Direction: 50°NE
Pressure: 30.59"   Gusts: 13mph
Location:  55.17°N, 30.22°E
Report Text: UMII 241200Z 05003G06MPS P6000 SCT040 00/M08 Q1036 R05/CLRD//NOSIG
Loading
Personal Weather Stations






























Interactive Weather Map
Tropical Storm Tracking
New forecast layout! Learn more

10-Day Weather Forecast

Advertisements
Track Severe Weather on mobile